Weather observations for the past three days for
Concord, Buchanan Field
Metric (Imperial)
Date Time (pdt) Wind (kph) Vis. (km) Weather Sky Cond. Temperature (ºC) Relative Humidity Wind Chill (°C) Heat Index (°C) Pressure Precipitation (cm)
Air Dwpt 6 hour altimeter (cm) sea level (mb) 1 hr 3 hr 6 hr
Max. Min.
08 09:53 S 22 16.09 Fair CLR 16.7 9.4 62% 76.38 1017.0
08 08:53 S 20 16.09 Fair CLR 14.4 8.9 70% 76.4 1017.1
08 07:53 SW 20 16.09 A Few Clouds FEW015 13.3 8.9 75% 76.4 1017.2
08 06:53 SW 19 16.09 Fair CLR 11.7 8.9 83% 76.38 1016.8
08 05:53 S 15 16.09 Fair CLR 11.1 8.9 86% 76.35 1016.4
08 04:53 SW 9 16.09 A Few Clouds FEW015 11.1 8.9 13.3 11.1 86% 76.35 1016.6
08 03:53 S 20 16.09 Fair CLR 11.7 8.9 83% 76.33 1016.2
08 02:53 S 20 16.09 Fair CLR 11.7 8.9 83% 76.33 1016.1
08 01:53 SW 20 16.09 Fair CLR 12.2 9.4 83% 76.33 1016.1
08 00:53 S 20 16.09 Mostly Cloudy BKN013 12.8 9.4 80% 76.33 1016.3
07 23:53 S 20 16.09 Fair CLR 12.8 10 83% 76.33 1016.1
07 22:53 S 17 16.09 Fair CLR 13.3 10.6 25 13.3 84% 76.3 1015.9
07 21:53 S 19 16.09 Fair CLR 14.4 11.1 81% 76.3 1015.7
07 20:53 SW 11 16.09 Fair CLR 16.1 11.1 72% 76.25 1015.0
07 19:53 W 15 16.09 Fair CLR 18.3 11.7 66% 76.2 1014.3
07 18:53 W 19 16.09 Fair CLR 20.6 11.7 57% 76.17 1014.2
07 17:53 W 20 16.09 Fair CLR 22.8 12.8 53% 76.17 1014.1
07 16:53 W 19 16.09 Fair CLR 24.4 13.3 25.6 18.3 50% 26 76.15 1014.0
07 15:53 NW 20 16.09 Fair CLR 25.6 13.3 47% 26 76.17 1014.0
07 14:53 NW 20 16.09 Fair CLR 24.4 12.8 48% 26 76.25 1015.1
07 13:53 NW 20 16.09 Fair CLR 22.2 12.8 55% 76.3 1015.8
07 12:53 NW 17 G 31 16.09 Fair CLR 21.1 12.8 59% 76.35 1016.5
07 11:53 NW 15 16.09 Fair CLR 19.4 12.2 63% 76.4 1017.2
07 10:53 N 15 16.09 Fair CLR 17.8 11.7 18.3 12.8 68% 76.43 1017.6
07 09:53 Calm 16.09 Fair CLR 16.1 10.6 70% 76.45 1017.8
07 08:53 SW 7 16.09 Mostly Cloudy BKN013 14.4 10.6 78% 76.45 1017.9
07 07:53 SW 9 16.09 Overcast OVC011 13.3 10 81% 76.45 1018.0
07 06:53 SW 13 16.09 Overcast OVC011 12.8 10 83% 76.43 1017.6
07 05:53 S 13 16.09 Overcast OVC011 12.8 10 83% 76.4 1017.2
07 04:53 SW 13 16.09 Overcast OVC011 12.8 10.6 15 12.8 87% 76.4 1017.3
07 03:53 SW 7 16.09 Overcast OVC011 12.8 10.6 87% 76.4 1017.1
07 02:53 SW 15 16.09 Fair CLR 12.8 11.1 90% 76.4 1017.1
07 01:53 SW 15 16.09 Fair CLR 13.3 10.6 84% 76.4 1017.3
07 00:53 S 15 16.09 Fair CLR 13.3 11.1 87% 76.4 1017.3
06 23:53 SW 19 16.09 Fair CLR 13.9 11.1 83% 76.4 1017.2
06 22:53 Vrbl 7 16.09 Fair CLR 15 11.7 23.9 13.9 81% 76.43 1017.4
06 21:53 NW 11 16.09 Fair CLR 15 11.7 81% 76.4 1017.3
06 20:53 NW 11 16.09 Fair CLR 16.1 11.7 75% 76.38 1016.9
06 19:53 W 11 16.09 Fair CLR 17.8 12.2 70% 76.35 1016.6
06 18:53 NW 20 16.09 Fair CLR 21.7 12.8 57% 76.3 1015.8
06 17:53 W 19 16.09 Fair CLR 22.8 13.3 55% 76.3 1015.7
06 16:53 W 11 G 30 16.09 Fair CLR 23.9 12.8 23.9 18.9 50% 25 76.3 1015.9
06 15:53 Calm 16.09 Fair CLR 23.3 12.2 50% 76.33 1016.3
06 14:53 NW 15 16.09 Fair CLR 23.3 12.2 50% 76.4 1017.3
06 13:53 NE 13 16.09 Fair CLR 22.8 11.1 48% 76.43 1017.6
06 12:53 Vrbl 6 16.09 Partly Cloudy SCT037 21.7 11.7 53% 76.48 1018.4
06 11:53 NW 9 16.09 Mostly Cloudy BKN036 20.6 12.2 59% 76.53 1018.8
06 10:53 Vrbl 6 16.09 A Few Clouds FEW026 18.9 11.7 18.9 13.3 63% 76.53 1019.0
06 09:53 Calm 16.09 Partly Cloudy SCT024 17.8 11.1 65% 76.56 1019.1
06 08:53 Vrbl 6 16.09 Mostly Cloudy BKN030 15.6 10.6 72% 76.58 1019.4
06 07:53 S 11 16.09 Partly Cloudy SCT030 14.4 10.6 78% 76.56 1019.3
06 06:53 S 9 16.09 Mostly Cloudy BKN050 13.3 10 81% 76.53 1018.7
06 05:53 S 7 16.09 Overcast OVC050 13.3 10 81% 76.5 1018.5
06 04:53 S 6 16.09 Overcast OVC048 13.3 10 13.9 12.2 81% 76.48 1018.2
06 03:53 S 6 16.09 Overcast OVC047 13.3 10 81% 76.45 1017.8
06 02:53 SW 7 16.09 Overcast OVC045 13.3 9.4 77% 76.43 1017.7
06 01:53 S 6 16.09 Overcast OVC046 12.8 10 83% 76.45 1017.7
06 00:53 S 9 16.09 Mostly Cloudy BKN047 12.8 10 83% 76.43 1017.6
05 23:53 S 7 16.09 Mostly Cloudy BKN047 13.3 10 81% 76.4 1017.1
05 22:53 S 11 16.09 Mostly Cloudy BKN047 13.3 10 17.8 13.3 81% 76.38 1016.8
05 21:53 SW 11 16.09 Overcast OVC046 13.9 10.6 81% 76.33 1016.3
05 20:53 W 17 16.09 Overcast BKN034 OVC045 14.4 10.6 78% 76.28 1015.6
05 19:53 W 15 16.09 Overcast OVC032 15 10.6 75% 76.23 1014.7
05 18:53 S 19 16.09 Overcast OVC032 16.7 10 65% 76.17 1014.2
05 17:53 S 17 16.09 Overcast BKN027 OVC048 17.2 10.6 65% 76.15 1013.9
05 16:53 SW 17 16.09 Overcast BKN027 OVC033 17.2 11.1 17.8 11.7 68% 76.15 1013.7
05 15:53 S 11 16.09 Overcast OVC027 17.2 10.6 65% 76.15 1013.8
05 14:53 S 19 16.09 Overcast OVC028 17.2 11.1 68% 76.17 1014.0
05 13:53 SW 7 16.09 Overcast OVC032 17.2 10.6 65% 76.17 1014.1
05 12:53 W 9 16.09 Overcast OVC026 16.7 10.6 67% 76.2 1014.5
Date Time (pdt) Wind (kph) Vis. (km) Weather Sky Cond. Air Dwpt Max. Min. Relative Humidity Wind Chill (°C) Heat Index (°C) altimeter (cm) sea level (mb) 1 hr 3 hr 6 hr
6 hour
Temperature (ºC) Pressure Precipitation (cm)